sensor_id;sensor_type;location;lat;lon;timestamp;P1;durP1;ratioP1;P2;durP2;ratioP2
22851;SDS011;11592;45.460;9.240;2023-07-13T00:01:53;8.13;;;3.00;;
22851;SDS011;11592;45.460;9.240;2023-07-13T03:36:30;11.52;;;6.38;;
22851;SDS011;11592;45.460;9.240;2023-07-13T03:38:59;11.10;;;6.60;;
22851;SDS011;11592;45.460;9.240;2023-07-13T03:41:29;13.27;;;6.28;;
22851;SDS011;11592;45.460;9.240;2023-07-13T03:43:57;12.18;;;6.47;;
22851;SDS011;11592;45.460;9.240;2023-07-13T03:46:24;11.90;;;6.05;;
22851;SDS011;11592;45.460;9.240;2023-07-13T03:48:51;12.27;;;6.07;;
22851;SDS011;11592;45.460;9.240;2023-07-13T03:51:18;14.00;;;7.25;;
22851;SDS011;11592;45.460;9.240;2023-07-13T03:53:46;12.82;;;6.10;;
22851;SDS011;11592;45.460;9.240;2023-07-13T03:56:14;11.90;;;6.20;;
22851;SDS011;11592;45.460;9.240;2023-07-13T03:58:43;11.35;;;5.97;;
22851;SDS011;11592;45.460;9.240;2023-07-13T04:01:12;9.20;;;6.38;;
22851;SDS011;11592;45.460;9.240;2023-07-13T04:03:40;14.23;;;6.10;;
22851;SDS011;11592;45.460;9.240;2023-07-13T04:06:08;10.15;;;6.03;;
22851;SDS011;11592;45.460;9.240;2023-07-13T04:08:55;11.63;;;6.28;;
22851;SDS011;11592;45.460;9.240;2023-07-13T04:11:24;11.63;;;5.78;;
22851;SDS011;11592;45.460;9.240;2023-07-13T04:13:53;15.00;;;6.20;;
22851;SDS011;11592;45.460;9.240;2023-07-13T04:16:21;12.00;;;5.63;;
22851;SDS011;11592;45.460;9.240;2023-07-13T04:18:48;12.65;;;6.22;;
22851;SDS011;11592;45.460;9.240;2023-07-13T04:21:16;10.80;;;5.97;;
22851;SDS011;11592;45.460;9.240;2023-07-13T04:23:43;13.13;;;7.38;;
22851;SDS011;11592;45.460;9.240;2023-07-13T04:26:10;16.05;;;8.10;;
22851;SDS011;11592;45.460;9.240;2023-07-13T04:28:38;17.27;;;8.57;;
22851;SDS011;11592;45.460;9.240;2023-07-13T04:31:04;23.55;;;10.10;;
22851;SDS011;11592;45.460;9.240;2023-07-13T04:33:31;18.63;;;10.20;;
22851;SDS011;11592;45.460;9.240;2023-07-13T04:35:58;19.45;;;9.15;;
22851;SDS011;11592;45.460;9.240;2023-07-13T04:38:26;14.75;;;8.55;;
22851;SDS011;11592;45.460;9.240;2023-07-13T04:40:58;15.95;;;7.68;;
22851;SDS011;11592;45.460;9.240;2023-07-13T04:43:27;15.90;;;8.02;;
22851;SDS011;11592;45.460;9.240;2023-07-13T04:45:55;16.02;;;8.10;;
22851;SDS011;11592;45.460;9.240;2023-07-13T04:48:23;14.48;;;8.60;;
22851;SDS011;11592;45.460;9.240;2023-07-13T04:50:54;12.40;;;6.97;;
22851;SDS011;11592;45.460;9.240;2023-07-13T04:53:22;13.52;;;7.75;;
22851;SDS011;11592;45.460;9.240;2023-07-13T04:55:50;17.42;;;8.63;;
22851;SDS011;11592;45.460;9.240;2023-07-13T04:58:17;17.15;;;9.18;;
22851;SDS011;11592;45.460;9.240;2023-07-13T05:00:44;12.85;;;8.25;;
22851;SDS011;11592;45.460;9.240;2023-07-13T05:03:11;18.33;;;9.15;;
22851;SDS011;11592;45.460;9.240;2023-07-13T05:05:38;15.02;;;8.75;;
22851;SDS011;11592;45.460;9.240;2023-07-13T05:08:05;12.35;;;7.95;;
22851;SDS011;11592;45.460;9.240;2023-07-13T05:10:33;13.98;;;8.30;;
22851;SDS011;11592;45.460;9.240;2023-07-13T05:13:01;12.43;;;8.52;;
22851;SDS011;11592;45.460;9.240;2023-07-13T05:15:29;19.25;;;8.77;;
22851;SDS011;11592;45.460;9.240;2023-07-13T05:17:56;10.65;;;7.03;;
22851;SDS011;11592;45.460;9.240;2023-07-13T05:20:23;13.98;;;7.70;;
22851;SDS011;11592;45.460;9.240;2023-07-13T05:22:49;13.27;;;8.30;;
22851;SDS011;11592;45.460;9.240;2023-07-13T05:25:17;12.65;;;6.63;;
22851;SDS011;11592;45.460;9.240;2023-07-13T05:27:44;11.52;;;6.70;;
22851;SDS011;11592;45.460;9.240;2023-07-13T05:30:12;9.80;;;6.05;;
22851;SDS011;11592;45.460;9.240;2023-07-13T05:32:39;13.52;;;6.65;;
22851;SDS011;11592;45.460;9.240;2023-07-13T05:35:06;11.60;;;6.25;;
22851;SDS011;11592;45.460;9.240;2023-07-13T05:37:33;12.43;;;5.93;;
22851;SDS011;11592;45.460;9.240;2023-07-13T05:40:00;11.23;;;5.13;;
22851;SDS011;11592;45.460;9.240;2023-07-13T05:42:28;8.63;;;5.72;;
22851;SDS011;11592;45.460;9.240;2023-07-13T05:44:54;8.43;;;4.78;;
22851;SDS011;11592;45.460;9.240;2023-07-13T05:47:21;8.80;;;4.75;;
22851;SDS011;11592;45.460;9.240;2023-07-13T05:49:49;9.02;;;4.10;;
22851;SDS011;11592;45.460;9.240;2023-07-13T05:52:15;11.75;;;5.13;;
22851;SDS011;11592;45.460;9.240;2023-07-13T05:54:42;9.10;;;3.80;;
22851;SDS011;11592;45.460;9.240;2023-07-13T05:57:09;8.35;;;3.33;;
22851;SDS011;11592;45.460;9.240;2023-07-13T05:59:36;19.70;;;3.40;;
22851;SDS011;11592;45.460;9.240;2023-07-13T06:02:03;9.38;;;3.15;;
22851;SDS011;11592;45.460;9.240;2023-07-13T06:04:30;7.20;;;3.28;;
22851;SDS011;11592;45.460;9.240;2023-07-13T06:06:57;6.32;;;3.00;;
22851;SDS011;11592;45.460;9.240;2023-07-13T06:09:24;10.55;;;3.67;;
22851;SDS011;11592;45.460;9.240;2023-07-13T06:11:50;6.88;;;2.92;;
22851;SDS011;11592;45.460;9.240;2023-07-13T06:14:17;6.10;;;2.40;;
22851;SDS011;11592;45.460;9.240;2023-07-13T06:16:44;5.32;;;2.47;;
22851;SDS011;11592;45.460;9.240;2023-07-13T06:19:11;6.25;;;2.88;;
22851;SDS011;11592;45.460;9.240;2023-07-13T06:21:38;6.28;;;2.58;;
22851;SDS011;11592;45.460;9.240;2023-07-13T06:24:05;5.63;;;2.28;;
22851;SDS011;11592;45.460;9.240;2023-07-13T06:26:32;8.90;;;2.92;;
22851;SDS011;11592;45.460;9.240;2023-07-13T06:28:59;4.25;;;2.25;;
22851;SDS011;11592;45.460;9.240;2023-07-13T06:31:26;7.53;;;2.33;;
22851;SDS011;11592;45.460;9.240;2023-07-13T06:33:52;11.73;;;3.05;;
22851;SDS011;11592;45.460;9.240;2023-07-13T06:36:19;6.25;;;1.80;;
22851;SDS011;11592;45.460;9.240;2023-07-13T06:38:46;3.97;;;2.05;;
22851;SDS011;11592;45.460;9.240;2023-07-13T06:41:13;3.83;;;2.10;;
22851;SDS011;11592;45.460;9.240;2023-07-13T06:43:40;7.15;;;2.10;;
22851;SDS011;11592;45.460;9.240;2023-07-13T06:46:07;6.78;;;2.30;;
22851;SDS011;11592;45.460;9.240;2023-07-13T06:48:34;4.05;;;2.00;;
22851;SDS011;11592;45.460;9.240;2023-07-13T06:51:02;4.95;;;2.20;;
22851;SDS011;11592;45.460;9.240;2023-07-13T06:53:29;5.05;;;2.10;;
22851;SDS011;11592;45.460;9.240;2023-07-13T06:55:56;5.55;;;2.35;;
22851;SDS011;11592;45.460;9.240;2023-07-13T06:58:23;5.40;;;2.55;;
22851;SDS011;11592;45.460;9.240;2023-07-13T07:00:50;5.05;;;2.38;;
22851;SDS011;11592;45.460;9.240;2023-07-13T07:03:18;5.55;;;2.10;;
22851;SDS011;11592;45.460;9.240;2023-07-13T07:05:45;4.60;;;2.70;;
22851;SDS011;11592;45.460;9.240;2023-07-13T07:08:12;4.40;;;2.45;;
22851;SDS011;11592;45.460;9.240;2023-07-13T07:10:40;4.80;;;2.60;;
22851;SDS011;11592;45.460;9.240;2023-07-13T07:13:07;7.03;;;2.63;;
22851;SDS011;11592;45.460;9.240;2023-07-13T07:15:34;4.70;;;2.42;;
22851;SDS011;11592;45.460;9.240;2023-07-13T07:18:01;13.55;;;2.97;;
22851;SDS011;11592;45.460;9.240;2023-07-13T07:20:29;8.32;;;3.10;;
22851;SDS011;11592;45.460;9.240;2023-07-13T07:22:58;10.02;;;2.95;;
22851;SDS011;11592;45.460;9.240;2023-07-13T07:25:26;6.90;;;2.88;;
22851;SDS011;11592;45.460;9.240;2023-07-13T07:27:52;7.40;;;2.53;;
22851;SDS011;11592;45.460;9.240;2023-07-13T07:30:22;7.72;;;2.72;;
22851;SDS011;11592;45.460;9.240;2023-07-13T07:32:52;6.28;;;2.72;;
22851;SDS011;11592;45.460;9.240;2023-07-13T07:35:23;5.13;;;2.47;;
22851;SDS011;11592;45.460;9.240;2023-07-13T07:37:50;7.68;;;2.65;;
22851;SDS011;11592;45.460;9.240;2023-07-13T07:40:17;4.65;;;2.35;;
22851;SDS011;11592;45.460;9.240;2023-07-13T07:42:48;7.35;;;3.45;;
22851;SDS011;11592;45.460;9.240;2023-07-13T07:45:14;7.20;;;2.70;;
22851;SDS011;11592;45.460;9.240;2023-07-13T07:47:41;6.10;;;2.35;;
22851;SDS011;11592;45.460;9.240;2023-07-13T07:50:09;4.57;;;2.45;;
22851;SDS011;11592;45.460;9.240;2023-07-13T07:52:36;7.15;;;2.58;;
22851;SDS011;11592;45.460;9.240;2023-07-13T07:55:04;6.75;;;2.22;;
22851;SDS011;11592;45.460;9.240;2023-07-13T07:57:35;5.22;;;2.15;;
22851;SDS011;11592;45.460;9.240;2023-07-13T08:00:05;4.53;;;1.95;;
22851;SDS011;11592;45.460;9.240;2023-07-13T08:02:36;5.47;;;2.30;;
22851;SDS011;11592;45.460;9.240;2023-07-13T08:05:06;5.90;;;2.35;;
22851;SDS011;11592;45.460;9.240;2023-07-13T08:07:37;5.32;;;2.58;;
22851;SDS011;11592;45.460;9.240;2023-07-13T08:10:05;6.78;;;3.63;;
22851;SDS011;11592;45.460;9.240;2023-07-13T08:12:34;10.68;;;3.85;;
22851;SDS011;11592;45.460;9.240;2023-07-13T08:15:05;9.80;;;3.42;;
22851;SDS011;11592;45.460;9.240;2023-07-13T08:17:35;7.70;;;3.63;;
22851;SDS011;11592;45.460;9.240;2023-07-13T08:20:03;7.82;;;3.45;;
22851;SDS011;11592;45.460;9.240;2023-07-13T08:22:30;7.40;;;3.40;;
22851;SDS011;11592;45.460;9.240;2023-07-13T08:24:58;5.47;;;2.72;;
22851;SDS011;11592;45.460;9.240;2023-07-13T08:27:26;5.65;;;2.30;;
22851;SDS011;11592;45.460;9.240;2023-07-13T08:29:54;7.95;;;3.15;;
22851;SDS011;11592;45.460;9.240;2023-07-13T08:32:22;10.20;;;2.63;;
22851;SDS011;11592;45.460;9.240;2023-07-13T08:34:49;4.15;;;1.80;;
22851;SDS011;11592;45.460;9.240;2023-07-13T08:37:17;5.90;;;3.15;;
22851;SDS011;11592;45.460;9.240;2023-07-13T08:39:45;7.60;;;2.70;;
22851;SDS011;11592;45.460;9.240;2023-07-13T08:42:22;13.38;;;2.80;;
22851;SDS011;11592;45.460;9.240;2023-07-13T08:46:05;9.68;;;2.58;;
22851;SDS011;11592;45.460;9.240;2023-07-13T08:48:26;4.10;;;2.60;;
22851;SDS011;11592;45.460;9.240;2023-07-13T08:50:58;8.60;;;2.72;;
22851;SDS011;11592;45.460;9.240;2023-07-13T08:53:35;5.13;;;2.78;;
22851;SDS011;11592;45.460;9.240;2023-07-13T08:56:05;6.07;;;2.63;;
22851;SDS011;11592;45.460;9.240;2023-07-13T08:58:42;4.93;;;2.83;;
22851;SDS011;11592;45.460;9.240;2023-07-13T09:01:57;7.63;;;3.38;;
22851;SDS011;11592;45.460;9.240;2023-07-13T09:04:44;6.57;;;3.40;;
22851;SDS011;11592;45.460;9.240;2023-07-13T09:07:22;13.13;;;6.78;;
22851;SDS011;11592;45.460;9.240;2023-07-13T09:16:03;7.47;;;3.83;;
22851;SDS011;11592;45.460;9.240;2023-07-13T09:21:09;8.32;;;3.55;;
22851;SDS011;11592;45.460;9.240;2023-07-13T09:23:40;8.70;;;3.63;;
22851;SDS011;11592;45.460;9.240;2023-07-13T09:26:11;9.05;;;3.67;;
22851;SDS011;11592;45.460;9.240;2023-07-13T09:28:43;10.48;;;4.82;;
22851;SDS011;11592;45.460;9.240;2023-07-13T09:31:15;9.98;;;4.88;;
22851;SDS011;11592;45.460;9.240;2023-07-13T09:33:49;9.30;;;3.70;;
22851;SDS011;11592;45.460;9.240;2023-07-13T09:38:43;8.13;;;4.05;;
22851;SDS011;11592;45.460;9.240;2023-07-13T09:44:19;11.95;;;4.32;;
22851;SDS011;11592;45.460;9.240;2023-07-13T09:46:55;8.93;;;5.45;;
22851;SDS011;11592;45.460;9.240;2023-07-13T09:49:29;7.40;;;4.70;;
22851;SDS011;11592;45.460;9.240;2023-07-13T09:52:04;11.55;;;5.10;;
22851;SDS011;11592;45.460;9.240;2023-07-13T09:54:36;7.68;;;4.70;;
22851;SDS011;11592;45.460;9.240;2023-07-13T09:57:08;8.20;;;4.03;;
22851;SDS011;11592;45.460;9.240;2023-07-13T09:59:40;9.65;;;4.47;;
22851;SDS011;11592;45.460;9.240;2023-07-13T10:02:29;11.00;;;4.85;;
22851;SDS011;11592;45.460;9.240;2023-07-13T10:05:04;11.85;;;4.90;;
22851;SDS011;11592;45.460;9.240;2023-07-13T10:07:38;11.52;;;4.95;;
22851;SDS011;11592;45.460;9.240;2023-07-13T10:10:13;11.05;;;4.82;;
22851;SDS011;11592;45.460;9.240;2023-07-13T10:12:44;9.20;;;4.60;;
22851;SDS011;11592;45.460;9.240;2023-07-13T10:15:14;10.25;;;5.47;;
22851;SDS011;11592;45.460;9.240;2023-07-13T10:17:53;8.32;;;5.53;;
22851;SDS011;11592;45.460;9.240;2023-07-13T10:20:22;7.68;;;4.82;;
22851;SDS011;11592;45.460;9.240;2023-07-13T10:22:50;10.73;;;5.07;;
22851;SDS011;11592;45.460;9.240;2023-07-13T10:25:44;7.90;;;4.53;;
22851;SDS011;11592;45.460;9.240;2023-07-13T10:28:33;8.60;;;4.40;;
22851;SDS011;11592;45.460;9.240;2023-07-13T10:31:04;10.00;;;4.72;;
22851;SDS011;11592;45.460;9.240;2023-07-13T10:33:38;9.23;;;4.18;;
22851;SDS011;11592;45.460;9.240;2023-07-13T10:36:12;9.80;;;4.32;;
22851;SDS011;11592;45.460;9.240;2023-07-13T10:38:54;5.00;;;3.28;;
22851;SDS011;11592;45.460;9.240;2023-07-13T10:41:23;10.73;;;4.22;;
22851;SDS011;11592;45.460;9.240;2023-07-13T10:43:53;6.15;;;2.67;;
22851;SDS011;11592;45.460;9.240;2023-07-13T10:46:24;4.70;;;2.38;;
22851;SDS011;11592;45.460;9.240;2023-07-13T10:48:57;4.25;;;2.30;;
22851;SDS011;11592;45.460;9.240;2023-07-13T10:51:28;4.85;;;2.40;;
22851;SDS011;11592;45.460;9.240;2023-07-13T10:54:10;5.03;;;2.40;;
22851;SDS011;11592;45.460;9.240;2023-07-13T10:56:46;7.05;;;2.58;;
22851;SDS011;11592;45.460;9.240;2023-07-13T10:59:26;5.95;;;2.80;;
22851;SDS011;11592;45.460;9.240;2023-07-13T11:01:56;7.82;;;2.90;;
22851;SDS011;11592;45.460;9.240;2023-07-13T11:04:43;6.55;;;2.97;;
22851;SDS011;11592;45.460;9.240;2023-07-13T11:07:24;4.25;;;2.92;;
22851;SDS011;11592;45.460;9.240;2023-07-13T11:09:58;5.65;;;2.28;;
22851;SDS011;11592;45.460;9.240;2023-07-13T11:15:14;7.30;;;2.17;;
22851;SDS011;11592;45.460;9.240;2023-07-13T11:17:55;5.35;;;2.30;;
22851;SDS011;11592;45.460;9.240;2023-07-13T11:20:33;3.72;;;2.47;;
22851;SDS011;11592;45.460;9.240;2023-07-13T11:25:38;6.63;;;2.63;;
22851;SDS011;11592;45.460;9.240;2023-07-13T11:36:06;6.70;;;2.65;;
22851;SDS011;11592;45.460;9.240;2023-07-13T11:38:41;8.48;;;3.53;;
22851;SDS011;11592;45.460;9.240;2023-07-13T11:41:19;6.75;;;3.72;;
22851;SDS011;11592;45.460;9.240;2023-07-13T11:43:49;7.20;;;2.78;;
22851;SDS011;11592;45.460;9.240;2023-07-13T11:46:20;9.35;;;2.92;;
22851;SDS011;11592;45.460;9.240;2023-07-13T11:48:53;8.75;;;4.00;;
22851;SDS011;11592;45.460;9.240;2023-07-13T11:53:48;8.13;;;3.30;;
22851;SDS011;11592;45.460;9.240;2023-07-13T11:56:17;10.68;;;3.75;;
22851;SDS011;11592;45.460;9.240;2023-07-13T11:58:47;7.75;;;3.70;;
22851;SDS011;11592;45.460;9.240;2023-07-13T12:01:25;6.07;;;4.17;;
22851;SDS011;11592;45.460;9.240;2023-07-13T12:04:03;10.57;;;4.00;;
22851;SDS011;11592;45.460;9.240;2023-07-13T12:06:33;7.57;;;3.50;;
22851;SDS011;11592;45.460;9.240;2023-07-13T12:09:12;7.25;;;4.25;;
22851;SDS011;11592;45.460;9.240;2023-07-13T12:11:42;12.23;;;3.80;;
22851;SDS011;11592;45.460;9.240;2023-07-13T12:14:13;6.70;;;3.28;;
22851;SDS011;11592;45.460;9.240;2023-07-13T12:16:47;8.07;;;4.45;;
22851;SDS011;11592;45.460;9.240;2023-07-13T12:19:25;8.80;;;3.20;;
22851;SDS011;11592;45.460;9.240;2023-07-13T12:21:55;9.77;;;3.25;;
22851;SDS011;11592;45.460;9.240;2023-07-13T12:24:23;9.20;;;3.70;;
22851;SDS011;11592;45.460;9.240;2023-07-13T12:26:58;11.23;;;2.90;;
22851;SDS011;11592;45.460;9.240;2023-07-13T12:29:27;11.13;;;3.70;;
22851;SDS011;11592;45.460;9.240;2023-07-13T12:31:54;11.18;;;3.13;;
22851;SDS011;11592;45.460;9.240;2023-07-13T12:34:24;9.35;;;3.42;;
22851;SDS011;11592;45.460;9.240;2023-07-13T12:36:56;8.05;;;3.38;;
22851;SDS011;11592;45.460;9.240;2023-07-13T12:39:28;9.43;;;2.85;;
22851;SDS011;11592;45.460;9.240;2023-07-13T12:42:18;10.38;;;3.63;;
22851;SDS011;11592;45.460;9.240;2023-07-13T12:47:24;9.38;;;3.10;;
22851;SDS011;11592;45.460;9.240;2023-07-13T12:49:56;8.48;;;2.85;;
22851;SDS011;11592;45.460;9.240;2023-07-13T12:52:29;5.65;;;3.20;;
22851;SDS011;11592;45.460;9.240;2023-07-13T12:55:11;11.37;;;3.37;;
22851;SDS011;11592;45.460;9.240;2023-07-13T12:57:51;4.55;;;2.78;;
22851;SDS011;11592;45.460;9.240;2023-07-13T13:00:21;8.25;;;3.25;;
22851;SDS011;11592;45.460;9.240;2023-07-13T13:02:52;9.52;;;3.13;;
22851;SDS011;11592;45.460;9.240;2023-07-13T13:05:33;9.35;;;3.10;;
22851;SDS011;11592;45.460;9.240;2023-07-13T13:08:00;11.10;;;3.60;;
22851;SDS011;11592;45.460;9.240;2023-07-13T13:10:27;7.15;;;2.97;;
22851;SDS011;11592;45.460;9.240;2023-07-13T13:12:54;8.25;;;3.20;;
22851;SDS011;11592;45.460;9.240;2023-07-13T13:15:21;5.20;;;3.00;;
22851;SDS011;11592;45.460;9.240;2023-07-13T13:17:49;7.60;;;3.10;;
22851;SDS011;11592;45.460;9.240;2023-07-13T13:20:20;10.38;;;3.60;;
22851;SDS011;11592;45.460;9.240;2023-07-13T13:22:48;9.10;;;3.25;;
22851;SDS011;11592;45.460;9.240;2023-07-13T13:25:15;7.05;;;3.38;;
22851;SDS011;11592;45.460;9.240;2023-07-13T13:27:42;6.68;;;3.10;;
22851;SDS011;11592;45.460;9.240;2023-07-13T13:30:13;7.28;;;3.25;;
22851;SDS011;11592;45.460;9.240;2023-07-13T13:32:42;6.30;;;2.75;;
22851;SDS011;11592;45.460;9.240;2023-07-13T13:35:14;10.15;;;3.00;;
22851;SDS011;11592;45.460;9.240;2023-07-13T13:37:44;11.85;;;3.38;;
22851;SDS011;11592;45.460;9.240;2023-07-13T13:42:42;9.88;;;3.83;;
22851;SDS011;11592;45.460;9.240;2023-07-13T13:45:10;8.20;;;3.58;;
22851;SDS011;11592;45.460;9.240;2023-07-13T13:47:38;9.45;;;4.10;;
22851;SDS011;11592;45.460;9.240;2023-07-13T13:50:21;6.57;;;3.20;;
22851;SDS011;11592;45.460;9.240;2023-07-13T13:52:48;6.15;;;3.10;;
22851;SDS011;11592;45.460;9.240;2023-07-13T13:55:16;6.20;;;3.53;;
22851;SDS011;11592;45.460;9.240;2023-07-13T13:57:45;7.50;;;3.30;;
22851;SDS011;11592;45.460;9.240;2023-07-13T14:00:14;7.30;;;3.30;;
22851;SDS011;11592;45.460;9.240;2023-07-13T14:02:44;7.70;;;3.50;;
22851;SDS011;11592;45.460;9.240;2023-07-13T14:05:21;7.22;;;3.60;;
22851;SDS011;11592;45.460;9.240;2023-07-13T14:07:49;9.18;;;3.63;;
22851;SDS011;11592;45.460;9.240;2023-07-13T14:10:17;20.60;;;3.95;;
22851;SDS011;11592;45.460;9.240;2023-07-13T14:12:46;13.02;;;4.20;;
22851;SDS011;11592;45.460;9.240;2023-07-13T14:15:24;9.07;;;3.67;;
22851;SDS011;11592;45.460;9.240;2023-07-13T14:17:54;10.18;;;3.83;;
22851;SDS011;11592;45.460;9.240;2023-07-13T14:20:21;6.70;;;3.40;;
22851;SDS011;11592;45.460;9.240;2023-07-13T14:22:53;8.18;;;3.78;;
22851;SDS011;11592;45.460;9.240;2023-07-13T14:25:21;7.25;;;3.92;;
22851;SDS011;11592;45.460;9.240;2023-07-13T14:27:49;6.45;;;3.25;;
22851;SDS011;11592;45.460;9.240;2023-07-13T14:30:22;11.90;;;4.00;;
22851;SDS011;11592;45.460;9.240;2023-07-13T14:32:49;8.75;;;4.10;;
22851;SDS011;11592;45.460;9.240;2023-07-13T14:35:17;8.30;;;3.60;;
22851;SDS011;11592;45.460;9.240;2023-07-13T14:37:46;8.73;;;4.13;;
22851;SDS011;11592;45.460;9.240;2023-07-13T14:40:14;11.40;;;3.97;;
22851;SDS011;11592;45.460;9.240;2023-07-13T14:42:43;7.25;;;3.58;;
22851;SDS011;11592;45.460;9.240;2023-07-13T14:45:14;11.35;;;3.83;;
22851;SDS011;11592;45.460;9.240;2023-07-13T14:47:42;8.10;;;3.28;;
22851;SDS011;11592;45.460;9.240;2023-07-13T14:50:16;10.30;;;2.95;;
22851;SDS011;11592;45.460;9.240;2023-07-13T14:52:50;10.88;;;3.50;;
22851;SDS011;11592;45.460;9.240;2023-07-13T14:55:18;13.75;;;4.03;;
22851;SDS011;11592;45.460;9.240;2023-07-13T14:57:45;7.78;;;3.70;;
22851;SDS011;11592;45.460;9.240;2023-07-13T15:00:13;8.80;;;3.75;;
22851;SDS011;11592;45.460;9.240;2023-07-13T15:02:42;9.20;;;4.00;;
22851;SDS011;11592;45.460;9.240;2023-07-13T15:05:20;7.07;;;3.78;;
22851;SDS011;11592;45.460;9.240;2023-07-13T15:07:51;8.85;;;4.22;;
22851;SDS011;11592;45.460;9.240;2023-07-13T15:10:21;7.57;;;4.35;;
22851;SDS011;11592;45.460;9.240;2023-07-13T15:12:51;9.93;;;3.88;;
22851;SDS011;11592;45.460;9.240;2023-07-13T15:15:19;11.73;;;4.40;;
22851;SDS011;11592;45.460;9.240;2023-07-13T15:17:46;8.55;;;4.18;;
22851;SDS011;11592;45.460;9.240;2023-07-13T15:22:57;7.82;;;4.32;;
22851;SDS011;11592;45.460;9.240;2023-07-13T15:25:25;6.70;;;3.85;;
22851;SDS011;11592;45.460;9.240;2023-07-13T15:27:54;8.52;;;3.70;;
22851;SDS011;11592;45.460;9.240;2023-07-13T15:30:24;12.80;;;3.88;;
22851;SDS011;11592;45.460;9.240;2023-07-13T15:32:53;6.93;;;3.85;;
22851;SDS011;11592;45.460;9.240;2023-07-13T15:35:25;8.70;;;3.65;;
22851;SDS011;11592;45.460;9.240;2023-07-13T15:37:54;6.35;;;4.05;;
22851;SDS011;11592;45.460;9.240;2023-07-13T15:40:21;12.90;;;4.05;;
22851;SDS011;11592;45.460;9.240;2023-07-13T15:42:49;13.65;;;3.58;;
22851;SDS011;11592;45.460;9.240;2023-07-13T15:45:20;10.95;;;3.70;;
22851;SDS011;11592;45.460;9.240;2023-07-13T15:47:49;13.80;;;5.55;;
22851;SDS011;11592;45.460;9.240;2023-07-13T15:50:18;9.65;;;3.83;;
22851;SDS011;11592;45.460;9.240;2023-07-13T15:52:53;9.20;;;4.20;;
22851;SDS011;11592;45.460;9.240;2023-07-13T15:57:51;10.98;;;3.55;;
22851;SDS011;11592;45.460;9.240;2023-07-13T16:00:21;8.18;;;3.80;;
22851;SDS011;11592;45.460;9.240;2023-07-13T16:02:52;9.57;;;3.85;;
22851;SDS011;11592;45.460;9.240;2023-07-13T16:05:20;10.85;;;4.45;;
22851;SDS011;11592;45.460;9.240;2023-07-13T16:07:50;7.78;;;3.50;;
22851;SDS011;11592;45.460;9.240;2023-07-13T16:10:21;7.22;;;3.58;;
22851;SDS011;11592;45.460;9.240;2023-07-13T16:12:53;8.45;;;3.97;;
22851;SDS011;11592;45.460;9.240;2023-07-13T16:15:21;8.38;;;4.25;;
22851;SDS011;11592;45.460;9.240;2023-07-13T16:17:48;8.20;;;3.70;;
22851;SDS011;11592;45.460;9.240;2023-07-13T16:20:17;11.13;;;4.07;;
22851;SDS011;11592;45.460;9.240;2023-07-13T16:22:45;8.25;;;4.05;;
22851;SDS011;11592;45.460;9.240;2023-07-13T16:27:52;11.00;;;4.15;;
22851;SDS011;11592;45.460;9.240;2023-07-13T16:30:26;8.60;;;3.63;;
22851;SDS011;11592;45.460;9.240;2023-07-13T16:32:56;8.88;;;4.13;;
22851;SDS011;11592;45.460;9.240;2023-07-13T16:35:29;13.18;;;3.63;;
22851;SDS011;11592;45.460;9.240;2023-07-13T16:38:01;11.60;;;3.90;;
22851;SDS011;11592;45.460;9.240;2023-07-13T16:40:33;6.60;;;3.55;;
22851;SDS011;11592;45.460;9.240;2023-07-13T16:43:01;10.23;;;3.60;;
22851;SDS011;11592;45.460;9.240;2023-07-13T16:45:32;6.75;;;3.25;;
22851;SDS011;11592;45.460;9.240;2023-07-13T16:48:08;7.70;;;3.90;;
22851;SDS011;11592;45.460;9.240;2023-07-13T16:50:42;9.50;;;4.20;;
22851;SDS011;11592;45.460;9.240;2023-07-13T16:53:21;10.80;;;3.85;;
22851;SDS011;11592;45.460;9.240;2023-07-13T16:55:51;10.30;;;4.03;;
22851;SDS011;11592;45.460;9.240;2023-07-13T16:58:22;8.90;;;4.07;;
22851;SDS011;11592;45.460;9.240;2023-07-13T17:00:51;9.07;;;3.70;;
22851;SDS011;11592;45.460;9.240;2023-07-13T17:03:19;7.60;;;3.85;;
22851;SDS011;11592;45.460;9.240;2023-07-13T17:05:46;8.98;;;3.67;;
22851;SDS011;11592;45.460;9.240;2023-07-13T17:08:21;16.15;;;4.85;;
22851;SDS011;11592;45.460;9.240;2023-07-13T17:10:52;15.20;;;4.47;;
22851;SDS011;11592;45.460;9.240;2023-07-13T17:13:27;8.98;;;3.60;;
22851;SDS011;11592;45.460;9.240;2023-07-13T17:15:55;11.38;;;3.83;;
22851;SDS011;11592;45.460;9.240;2023-07-13T17:18:28;8.23;;;3.75;;
22851;SDS011;11592;45.460;9.240;2023-07-13T17:21:05;7.78;;;3.90;;
22851;SDS011;11592;45.460;9.240;2023-07-13T17:23:34;11.35;;;4.13;;
22851;SDS011;11592;45.460;9.240;2023-07-13T17:26:01;8.73;;;3.83;;
22851;SDS011;11592;45.460;9.240;2023-07-13T17:28:30;9.15;;;3.90;;
22851;SDS011;11592;45.460;9.240;2023-07-13T17:30:57;10.32;;;3.85;;
22851;SDS011;11592;45.460;9.240;2023-07-13T17:36:10;14.32;;;4.93;;
22851;SDS011;11592;45.460;9.240;2023-07-13T17:38:39;17.35;;;7.43;;
22851;SDS011;11592;45.460;9.240;2023-07-13T17:41:10;10.48;;;4.45;;
22851;SDS011;11592;45.460;9.240;2023-07-13T17:43:41;16.58;;;6.50;;
22851;SDS011;11592;45.460;9.240;2023-07-13T17:46:13;10.88;;;4.63;;
22851;SDS011;11592;45.460;9.240;2023-07-13T17:48:43;12.55;;;4.07;;
22851;SDS011;11592;45.460;9.240;2023-07-13T17:51:15;15.98;;;6.57;;
22851;SDS011;11592;45.460;9.240;2023-07-13T17:53:44;10.73;;;4.13;;
22851;SDS011;11592;45.460;9.240;2023-07-13T17:56:11;8.68;;;3.95;;
22851;SDS011;11592;45.460;9.240;2023-07-13T17:58:40;11.10;;;4.72;;
22851;SDS011;11592;45.460;9.240;2023-07-13T18:01:15;10.07;;;4.13;;
22851;SDS011;11592;45.460;9.240;2023-07-13T18:03:47;12.68;;;3.97;;
22851;SDS011;11592;45.460;9.240;2023-07-13T18:06:20;9.02;;;4.10;;
22851;SDS011;11592;45.460;9.240;2023-07-13T18:08:58;6.57;;;4.30;;
22851;SDS011;11592;45.460;9.240;2023-07-13T18:11:32;11.90;;;4.68;;
22851;SDS011;11592;45.460;9.240;2023-07-13T18:13:59;13.02;;;4.20;;
22851;SDS011;11592;45.460;9.240;2023-07-13T18:16:27;8.07;;;4.00;;
22851;SDS011;11592;45.460;9.240;2023-07-13T18:18:56;9.48;;;3.85;;
22851;SDS011;11592;45.460;9.240;2023-07-13T18:21:24;10.27;;;3.75;;
22851;SDS011;11592;45.460;9.240;2023-07-13T18:23:52;8.10;;;3.90;;
22851;SDS011;11592;45.460;9.240;2023-07-13T18:26:23;9.32;;;4.25;;
22851;SDS011;11592;45.460;9.240;2023-07-13T18:28:51;9.43;;;4.50;;
22851;SDS011;11592;45.460;9.240;2023-07-13T18:31:20;11.45;;;3.72;;
22851;SDS011;11592;45.460;9.240;2023-07-13T18:33:50;11.15;;;4.25;;
22851;SDS011;11592;45.460;9.240;2023-07-13T18:36:20;12.85;;;3.65;;
22851;SDS011;11592;45.460;9.240;2023-07-13T18:38:48;10.40;;;4.15;;
22851;SDS011;11592;45.460;9.240;2023-07-13T18:41:16;8.00;;;4.10;;
22851;SDS011;11592;45.460;9.240;2023-07-13T18:43:47;10.00;;;3.97;;
22851;SDS011;11592;45.460;9.240;2023-07-13T18:46:23;10.20;;;4.10;;
22851;SDS011;11592;45.460;9.240;2023-07-13T18:48:58;8.57;;;3.78;;
22851;SDS011;11592;45.460;9.240;2023-07-13T18:51:25;9.60;;;4.15;;
22851;SDS011;11592;45.460;9.240;2023-07-13T18:53:52;10.90;;;4.15;;
22851;SDS011;11592;45.460;9.240;2023-07-13T18:56:19;11.02;;;4.53;;
22851;SDS011;11592;45.460;9.240;2023-07-13T18:58:46;9.25;;;4.50;;
22851;SDS011;11592;45.460;9.240;2023-07-13T19:01:22;12.35;;;4.15;;
22851;SDS011;11592;45.460;9.240;2023-07-13T19:03:50;12.18;;;4.25;;
22851;SDS011;11592;45.460;9.240;2023-07-13T19:06:18;11.98;;;4.15;;
22851;SDS011;11592;45.460;9.240;2023-07-13T19:08:46;15.80;;;4.85;;
22851;SDS011;11592;45.460;9.240;2023-07-13T19:11:14;13.00;;;4.47;;
22851;SDS011;11592;45.460;9.240;2023-07-13T19:13:42;14.63;;;4.40;;
22851;SDS011;11592;45.460;9.240;2023-07-13T19:16:11;14.07;;;4.03;;
22851;SDS011;11592;45.460;9.240;2023-07-13T19:18:40;12.40;;;4.22;;
22851;SDS011;11592;45.460;9.240;2023-07-13T19:21:31;14.13;;;4.20;;